To NAV CANADA Home Page Login to a new session Search on AWWS site Feedback and Comments Disclaimer Vers la page française équivalente Tips FAQ What's new on the site To the Forecasts and Observations / NOTAM section To "File a Flight Plan" website Publications and other links Update of the User's profile FIC Telephone Numbers My Weather Data Folder Route Weather Data Regional Weather Data Local Weather Data To the Forecasts and Observations / NOTAM section
Request Generated 05/27/2016 at 20:00:59 UTC . Weather information available at that time is displayed.

METAR/TAF

THOMPSON/MB    

METAR CYTH 271900Z 06008KT 030V110 15SM OVC023 06/M00 A3018 RMK SC8
SLP236=
METAR CYTH 271800Z 07009G15KT 040V110 15SM OVC019 04/M01 A3018 RMK
SC8 SLP235=
METAR CYTH 271700Z 07009KT 020V120 15SM OVC018 03/M01 A3017 RMK SC8
SLP233=

TAF CYTH 271838Z 2719/2807 06010KT P6SM OVC020
FM272200 07012KT P6SM BKN020 TEMPO 2722/2806 SCT020
FM280600 07006KT P6SM BKN008
RMK NXT FCST BY 280100Z=
Your time UTC time
Weather data provided by Environment Canada and NAV CANADA